1R8 weather

Bay Minette Municipal Airport
Bay Minette, Alabama, United States

Public forecast

Using degrees Fahrenheit for public forecast. Weather courtesy of forecast.io.

Closest aviation weather report (METAR) to Bay Minette Municipal Airport

Closest report is Mobile Downtown Airport, 19.5 nm (36.0 km) SW. Retrieved 2019/10/23 19:53 UTC (24 minutes ago):

KBFM 231953Z 13004KT 10SM CLR 23/02 A3014 RMK AO2 SLP205 T02280022

Closest aviation forecast (TAF) to Bay Minette Municipal Airport

Closest forecast is Mobile Downtown Airport, 19.5 nm (36.0 km) SW. Retrieved 2019/10/23 18:28 UTC (2 hours ago):

TAF KBFM 231726Z 2318/2418 05010KT P6SM FEW250 FM240200 03005KT P6SM SKC FM241500 06008KT P6SM SKC